Time;durP1;ratioP1;P1;durP2;ratioP2;P2;SDS_P1;SDS_P2;PMS_P1;PMS_P2;Temp;Humidity;BMP_temperature;BMP_pressure;BME280_temperature;BME280_humidity;BME280_pressure;Samples;Min_cycle;Max_cycle;Signal;HPM_P1;HPM_P2
2021/09/03 00:01:55;;;;;;;60.95;31.08;;;;;;;13.30;100.00;102295.69;5203476;28;20210;-83
2021/09/03 00:04:26;;;;;;;57.38;30.23;;;;;;;13.31;100.00;102298.25;5203563;28;20033;-83
2021/09/03 00:06:58;;;;;;;59.22;30.38;;;;;;;13.32;100.00;102289.16;5198445;28;20563;-82
2021/09/03 00:09:28;;;;;;;60.40;30.38;;;;;;;13.30;100.00;102284.91;5195036;28;20049;-83
2021/09/03 00:11:59;;;;;;;61.38;31.48;;;;;;;13.30;100.00;102285.75;5203177;28;20118;-83
2021/09/03 00:14:30;;;;;;;57.70;30.63;;;;;;;13.31;100.00;102283.94;5202486;28;20029;-82
2021/09/03 00:17:01;;;;;;;65.40;31.30;;;;;;;13.29;100.00;102278.66;5202642;28;20077;-83
2021/09/03 00:19:32;;;;;;;60.10;31.35;;;;;;;13.24;100.00;102272.88;5203899;28;20363;-83
2021/09/03 00:22:03;;;;;;;64.32;30.83;;;;;;;13.24;100.00;102277.44;5186422;28;20038;-82
2021/09/03 00:24:33;;;;;;;63.70;31.48;;;;;;;13.15;100.00;102273.72;5203585;28;20037;-83
2021/09/03 00:27:04;;;;;;;59.80;32.08;;;;;;;13.09;100.00;102272.47;5203646;28;20053;-83
2021/09/03 00:29:34;;;;;;;65.15;32.83;;;;;;;13.04;100.00;102272.09;5168812;28;20018;-83
2021/09/03 00:32:05;;;;;;;60.95;31.50;;;;;;;12.96;100.00;102272.84;5192952;28;20033;-83
2021/09/03 00:34:36;;;;;;;66.43;32.92;;;;;;;13.04;100.00;102266.69;5200361;28;20108;-81
2021/09/03 00:37:06;;;;;;;62.30;31.88;;;;;;;13.03;100.00;102259.63;5202768;28;20510;-83
2021/09/03 00:39:37;;;;;;;63.50;32.80;;;;;;;12.99;100.00;102265.44;5185763;28;20398;-83
2021/09/03 00:42:10;;;;;;;66.25;32.00;;;;;;;12.95;100.00;102260.38;5203007;28;20168;-83
2021/09/03 00:44:42;;;;;;;60.20;32.17;;;;;;;12.90;100.00;102256.38;5203008;28;20105;-83
2021/09/03 00:47:13;;;;;;;62.90;30.70;;;;;;;12.86;100.00;102257.72;5203330;28;20021;-84
2021/09/03 00:49:43;;;;;;;64.05;31.17;;;;;;;12.82;100.00;102256.28;5186655;28;20425;-82
2021/09/03 00:52:14;;;;;;;62.35;29.90;;;;;;;12.80;100.00;102251.06;5206038;28;20491;-82
2021/09/03 00:54:45;;;;;;;65.30;29.95;;;;;;;12.77;100.00;102255.88;5197185;28;20096;-83
2021/09/03 00:57:16;;;;;;;70.47;32.15;;;;;;;12.76;100.00;102254.19;5204425;28;20052;-83
2021/09/03 00:59:46;;;;;;;61.92;31.92;;;;;;;12.67;100.00;102251.38;5206716;28;20029;-83
2021/09/03 01:02:17;;;;;;;72.00;33.53;;;;;;;12.63;100.00;102247.28;5208076;28;20112;-84
2021/09/03 01:04:48;;;;;;;67.30;32.70;;;;;;;12.58;100.00;102254.09;5207450;28;20025;-83
2021/09/03 01:07:19;;;;;;;66.13;32.40;;;;;;;12.64;100.00;102246.28;5206368;28;20033;-82
2021/09/03 01:09:50;;;;;;;63.75;34.17;;;;;;;12.62;100.00;102245.56;5207721;28;20014;-83
2021/09/03 01:12:27;;;;;;;60.45;32.20;;;;;;;12.58;100.00;102244.16;5207665;28;20047;-83
2021/09/03 01:14:58;;;;;;;64.22;31.23;;;;;;;12.59;100.00;102236.94;5207271;28;20112;-83
2021/09/03 01:17:28;;;;;;;64.15;31.70;;;;;;;12.56;100.00;102240.78;5206810;28;20083;-83
2021/09/03 01:19:59;;;;;;;61.50;32.92;;;;;;;12.59;100.00;102232.41;5193356;28;20037;-83
2021/09/03 01:22:30;;;;;;;66.93;33.78;;;;;;;12.61;100.00;102234.97;5206348;28;20137;-82
2021/09/03 01:25:01;;;;;;;59.75;30.65;;;;;;;12.59;100.00;102229.69;5205958;28;20025;-84
2021/09/03 01:27:31;;;;;;;65.80;31.85;;;;;;;12.60;100.00;102223.34;5206939;28;20029;-83
2021/09/03 01:30:04;;;;;;;70.55;33.08;;;;;;;12.59;100.00;102218.09;5199908;28;20076;-81
2021/09/03 01:32:35;;;;;;;67.63;33.28;;;;;;;12.59;100.00;102227.00;5182528;28;20034;-83
2021/09/03 01:35:06;;;;;;;69.20;33.28;;;;;;;12.57;100.00;102218.25;5207230;28;20060;-83
2021/09/03 01:37:37;;;;;;;67.68;34.00;;;;;;;12.61;100.00;102224.19;5206657;28;20391;-83
2021/09/03 01:40:09;;;;;;;69.40;31.40;;;;;;;12.53;100.00;102214.13;5206551;28;20026;-83
2021/09/03 01:42:40;;;;;;;72.82;33.13;;;;;;;12.55;100.00;102214.88;5206010;28;20092;-82
2021/09/03 01:45:11;;;;;;;78.72;34.40;;;;;;;12.50;100.00;102210.88;5206955;28;20017;-84
2021/09/03 01:47:41;;;;;;;72.95;35.42;;;;;;;12.46;100.00;102215.72;5206506;28;20422;-83
2021/09/03 01:50:12;;;;;;;75.30;33.75;;;;;;;12.37;100.00;102205.84;5205168;28;20664;-83
2021/09/03 01:52:43;;;;;;;75.85;34.03;;;;;;;12.33;100.00;102212.50;5205375;28;20043;-84
2021/09/03 01:55:14;;;;;;;66.28;35.35;;;;;;;12.31;100.00;102214.50;5192545;28;20534;-84
2021/09/03 01:57:45;;;;;;;78.05;35.03;;;;;;;12.37;100.00;102203.97;5205302;28;20026;-83
2021/09/03 02:00:16;;;;;;;70.13;35.45;;;;;;;12.38;100.00;102213.75;5174614;28;20029;-83
2021/09/03 02:02:46;;;;;;;76.95;35.97;;;;;;;12.39;100.00;102199.28;5202832;28;20071;-82
2021/09/03 02:05:17;;;;;;;84.43;37.25;;;;;;;12.36;100.00;102201.44;5185368;28;20025;-83
2021/09/03 02:07:48;;;;;;;73.40;35.30;;;;;;;12.31;100.00;102199.19;5202597;28;20565;-82
2021/09/03 02:10:22;;;;;;;82.10;37.45;;;;;;;12.38;100.00;102202.13;5202558;28;20021;-82
2021/09/03 02:12:53;;;;;;;88.93;38.17;;;;;;;12.34;100.00;102198.03;5202878;28;20395;-83
2021/09/03 02:15:24;;;;;;;82.00;36.42;;;;;;;12.24;100.00;102192.66;5194770;28;20317;-83
2021/09/03 02:17:54;;;;;;;75.38;35.78;;;;;;;12.12;100.00;102193.84;5196941;28;20288;-83
2021/09/03 02:20:25;;;;;;;83.05;36.92;;;;;;;12.00;100.00;102189.59;5202146;28;20025;-83
2021/09/03 02:22:55;;;;;;;76.53;35.92;;;;;;;11.95;100.00;102195.41;5202242;28;20398;-84
2021/09/03 02:25:26;;;;;;;83.63;37.85;;;;;;;11.91;100.00;102188.63;5202036;28;20045;-83
2021/09/03 02:27:56;;;;;;;90.00;39.40;;;;;;;11.81;100.00;102190.44;5202408;28;20119;-83
2021/09/03 02:30:27;;;;;;;80.60;36.45;;;;;;;11.72;100.00;102188.59;5202364;28;20045;-83
2021/09/03 02:32:57;;;;;;;88.55;36.75;;;;;;;11.64;100.00;102176.69;5189210;28;20026;-84
2021/09/03 02:35:28;;;;;;;89.35;37.15;;;;;;;11.58;100.00;102169.19;5201687;28;20533;-82
2021/09/03 02:37:59;;;;;;;79.60;37.47;;;;;;;11.56;100.00;102170.34;5201388;28;20026;-82
2021/09/03 02:40:29;;;;;;;83.10;36.10;;;;;;;11.48;100.00;102165.66;5204379;28;20030;-83
2021/09/03 02:43:01;;;;;;;84.25;39.22;;;;;;;11.40;100.00;102162.81;5193776;28;20057;-83
2021/09/03 02:45:32;;;;;;;82.95;37.28;;;;;;;11.33;100.00;102175.94;5192680;28;20112;-83
2021/09/03 02:48:03;;;;;;;90.35;38.30;;;;;;;11.33;100.00;102172.41;5206206;28;20159;-83
2021/09/03 02:50:33;;;;;;;95.20;39.38;;;;;;;11.36;100.00;102173.00;5184853;28;20349;-83
2021/09/03 02:53:04;;;;;;;97.25;39.92;;;;;;;11.35;100.00;102168.63;5195734;28;20030;-83
2021/09/03 02:55:34;;;;;;;99.47;43.60;;;;;;;11.39;100.00;102177.22;5192608;28;20091;-83
2021/09/03 02:58:05;;;;;;;102.38;42.00;;;;;;;11.34;100.00;102174.09;5205823;28;20142;-83
2021/09/03 03:00:35;;;;;;;101.05;40.30;;;;;;;11.27;100.00;102164.91;5205465;28;20475;-83
2021/09/03 03:03:07;;;;;;;94.00;39.30;;;;;;;11.21;100.00;102168.16;5205365;28;20392;-82
2021/09/03 03:05:38;;;;;;;96.28;42.15;;;;;;;11.12;100.00;102157.25;5188008;28;20021;-83
2021/09/03 03:08:08;;;;;;;96.97;42.13;;;;;;;11.05;100.00;102164.16;5205340;28;20033;-83
2021/09/03 03:10:39;;;;;;;86.88;38.65;;;;;;;11.00;100.00;102161.06;5213876;28;20028;-83
2021/09/03 03:13:27;;;;;;;96.00;40.85;;;;;;;10.96;100.00;102159.63;5209730;28;20029;-83
2021/09/03 03:15:58;;;;;;;101.10;39.78;;;;;;;10.89;100.00;102153.97;5205292;28;20021;-81
2021/09/03 03:18:28;;;;;;;83.15;38.97;;;;;;;10.84;100.00;102156.19;5205120;28;20094;-82
2021/09/03 03:20:59;;;;;;;90.18;38.67;;;;;;;10.77;100.00;102154.19;5204745;28;20025;-83
2021/09/03 03:23:29;;;;;;;101.95;42.50;;;;;;;10.75;100.00;102154.31;5204969;28;20018;-82
2021/09/03 03:26:02;;;;;;;91.25;40.92;;;;;;;10.70;100.00;102153.88;5204402;28;20060;-83
2021/09/03 03:28:32;;;;;;;97.15;42.60;;;;;;;10.66;100.00;102155.13;5207432;28;20399;-83
2021/09/03 03:31:03;;;;;;;101.13;41.35;;;;;;;10.60;100.00;102145.78;5210579;28;20037;-83
2021/09/03 03:33:33;;;;;;;109.90;44.28;;;;;;;10.57;100.00;102148.72;5211259;28;20025;-83
2021/09/03 03:36:04;;;;;;;113.13;44.97;;;;;;;10.53;100.00;102143.75;5197136;28;20040;-83
2021/09/03 03:38:35;;;;;;;100.22;40.90;;;;;;;10.54;100.00;102145.47;5199615;28;20030;-83
2021/09/03 03:41:05;;;;;;;109.57;43.38;;;;;;;10.50;100.00;102146.72;5208212;28;20025;-83
2021/09/03 03:43:36;;;;;;;111.43;44.50;;;;;;;10.49;100.00;102145.88;5210123;28;20380;-83
2021/09/03 03:46:06;;;;;;;104.93;40.20;;;;;;;10.47;100.00;102142.47;5210982;28;20029;-83
2021/09/03 03:48:37;;;;;;;92.07;40.58;;;;;;;10.42;100.00;102133.97;5210564;28;20075;-82
2021/09/03 03:51:08;;;;;;;90.38;38.30;;;;;;;10.40;100.00;102141.31;5209872;28;20060;-82
2021/09/03 03:53:39;;;;;;;108.15;39.42;;;;;;;10.36;100.00;102139.88;5210336;28;20029;-82
2021/09/03 03:56:09;;;;;;;94.65;38.92;;;;;;;10.31;100.00;102139.44;5209970;28;20025;-82
2021/09/03 03:58:40;;;;;;;112.05;39.47;;;;;;;10.26;100.00;102130.94;5210184;28;20095;-82
2021/09/03 04:01:10;;;;;;;103.38;40.30;;;;;;;10.23;100.00;102133.84;5209964;28;20128;-82
2021/09/03 04:03:41;;;;;;;98.97;41.60;;;;;;;10.17;100.00;102129.84;5209743;28;20033;-83
2021/09/03 04:06:11;;;;;;;115.47;43.28;;;;;;;10.16;100.00;102130.84;5193469;28;20032;-83
2021/09/03 04:08:42;;;;;;;120.18;45.40;;;;;;;10.12;100.00;102129.41;5204903;28;20026;-83
2021/09/03 04:11:12;;;;;;;113.07;44.10;;;;;;;10.10;100.00;102118.81;5202426;28;20427;-83
2021/09/03 04:13:43;;;;;;;108.15;40.08;;;;;;;10.12;100.00;102124.88;5210384;28;20026;-83
2021/09/03 04:16:13;;;;;;;110.00;39.88;;;;;;;10.16;100.00;102120.13;5192961;28;20060;-82
2021/09/03 04:18:44;;;;;;;98.30;38.53;;;;;;;10.17;100.00;102126.31;5210296;28;20470;-83
2021/09/03 04:21:14;;;;;;;94.35;40.05;;;;;;;10.12;100.00;102121.34;5208514;28;20037;-82
2021/09/03 04:23:45;;;;;;;105.43;40.97;;;;;;;10.05;100.00;102121.03;5194678;28;20048;-83
2021/09/03 04:26:15;;;;;;;107.78;42.05;;;;;;;10.01;100.00;102124.13;5205322;28;20083;-81
2021/09/03 04:28:46;;;;;;;100.47;40.45;;;;;;;9.95;100.00;102120.13;5205371;28;20017;-83
2021/09/03 04:31:16;;;;;;;80.53;34.13;;;;;;;9.96;100.00;102120.97;5187155;28;20116;-82
2021/09/03 04:33:47;;;;;;;99.20;37.78;;;;;;;9.90;100.00;102121.50;5187290;28;20025;-83
2021/09/03 04:36:17;;;;;;;115.22;41.20;;;;;;;9.88;100.00;102128.81;5187166;28;20029;-82
2021/09/03 04:38:48;;;;;;;102.97;38.60;;;;;;;9.85;100.00;102125.44;5204541;28;20325;-82
2021/09/03 04:41:18;;;;;;;98.35;38.70;;;;;;;9.83;100.00;102123.84;5203643;28;20037;-82
2021/09/03 04:43:49;;;;;;;89.35;37.78;;;;;;;9.80;100.00;102124.97;5203936;28;20036;-83
2021/09/03 04:46:19;;;;;;;99.07;39.60;;;;;;;9.78;100.00;102118.88;5204275;28;20120;-83
2021/09/03 04:48:50;;;;;;;100.72;40.13;;;;;;;9.76;100.00;102115.47;5173268;28;20021;-82
2021/09/03 04:51:20;;;;;;;107.97;39.90;;;;;;;9.77;100.00;102119.00;5186424;28;20472;-82
2021/09/03 04:53:51;;;;;;;108.43;42.83;;;;;;;9.78;100.00;102112.66;5204008;28;20383;-83
2021/09/03 04:56:21;;;;;;;102.43;40.42;;;;;;;9.80;100.00;102118.75;5204748;28;20033;-83
2021/09/03 04:58:51;;;;;;;111.72;43.47;;;;;;;9.78;100.00;102116.19;5204695;28;20140;-82
2021/09/03 05:01:22;;;;;;;111.03;41.13;;;;;;;9.78;100.00;102118.03;5203740;28;20033;-82
2021/09/03 05:03:52;;;;;;;115.30;41.80;;;;;;;9.80;100.00;102110.72;5185880;28;20553;-82
2021/09/03 05:06:23;;;;;;;112.25;42.90;;;;;;;9.83;100.00;102115.81;5190774;28;20048;-82
2021/09/03 05:08:53;;;;;;;97.80;39.92;;;;;;;9.82;100.00;102104.22;5203847;28;20358;-83
2021/09/03 05:11:24;;;;;;;100.10;39.10;;;;;;;9.89;100.00;102111.75;5183914;28;20025;-83
2021/09/03 05:13:54;;;;;;;105.35;39.40;;;;;;;9.97;100.00;102107.44;5195475;28;20099;-82
2021/09/03 05:16:25;;;;;;;113.32;41.63;;;;;;;10.04;100.00;102102.38;5207899;28;20036;-80
2021/09/03 05:18:55;;;;;;;118.40;44.95;;;;;;;10.11;100.00;102108.94;5207289;28;20543;-81
2021/09/03 05:21:26;;;;;;;131.57;47.72;;;;;;;10.19;100.00;102105.56;5207449;28;20032;-80
2021/09/03 05:23:56;;;;;;;153.18;52.28;;;;;;;10.27;100.00;102119.22;5208240;28;20025;-80
2021/09/03 05:26:27;;;;;;;137.27;51.47;;;;;;;10.50;100.00;102115.38;5207173;28;20513;-81
2021/09/03 05:28:57;;;;;;;143.30;50.75;;;;;;;10.76;100.00;102123.81;5207057;28;20052;-81
2021/09/03 05:31:28;;;;;;;158.27;54.65;;;;;;;10.98;100.00;102114.66;5200049;28;20355;-81
2021/09/03 05:33:58;;;;;;;154.80;53.65;;;;;;;11.35;100.00;102111.34;5183821;28;20060;-81
2021/09/03 05:36:29;;;;;;;145.88;53.28;;;;;;;11.73;100.00;102117.69;5207663;28;20490;-82
2021/09/03 05:38:59;;;;;;;131.80;50.58;;;;;;;12.04;100.00;102119.22;5207164;28;20029;-82
2021/09/03 05:41:30;;;;;;;107.78;44.35;;;;;;;12.47;100.00;102125.91;5205944;28;20037;-82
2021/09/03 05:44:00;;;;;;;111.47;45.05;;;;;;;13.00;100.00;102125.22;5206587;28;20059;-83
2021/09/03 05:46:31;;;;;;;88.25;40.33;;;;;;;13.31;100.00;102130.31;5196487;28;20500;-81
2021/09/03 05:49:01;;;;;;;79.88;37.45;;;;;;;13.89;100.00;102122.56;5203380;28;20108;-82
2021/09/03 05:51:32;;;;;;;74.13;35.13;;;;;;;14.23;100.00;102122.63;5206581;28;20029;-82
2021/09/03 05:54:07;;;;;;;66.03;32.70;;;;;;;14.52;100.00;102124.19;5192208;28;20040;-81
2021/09/03 05:56:38;;;;;;;62.08;29.85;;;;;;;14.66;100.00;102130.81;5206472;28;20029;-82
2021/09/03 05:59:08;;;;;;;58.85;29.30;;;;;;;14.72;100.00;102124.78;5205564;28;20036;-81
2021/09/03 06:01:39;;;;;;;66.07;31.33;;;;;;;14.66;100.00;102128.97;5206197;28;20036;-82
2021/09/03 06:04:09;;;;;;;65.55;30.33;;;;;;;14.43;100.00;102130.50;5203509;28;20022;-81
2021/09/03 06:06:40;;;;;;;65.65;31.65;;;;;;;14.15;100.00;102124.41;5202194;28;20068;-83
2021/09/03 06:09:10;;;;;;;74.53;33.92;;;;;;;14.06;100.00;102125.41;5192496;28;20080;-82
2021/09/03 06:11:41;;;;;;;68.13;33.45;;;;;;;13.77;100.00;102125.69;5211899;28;20035;-83
2021/09/03 06:14:11;;;;;;;67.85;33.28;;;;;;;13.66;100.00;102129.47;5183881;28;20018;-82
2021/09/03 06:16:42;;;;;;;74.20;35.47;;;;;;;13.59;100.00;102123.81;5202156;28;20422;-82
2021/09/03 06:19:12;;;;;;;73.82;37.03;;;;;;;13.64;100.00;102118.81;5201816;28;20025;-81
2021/09/03 06:21:42;;;;;;;71.68;36.15;;;;;;;13.68;100.00;102130.13;5202405;28;20276;-82
2021/09/03 06:24:29;;;;;;;72.07;36.83;;;;;;;13.71;100.00;102127.16;5201910;28;20064;-82
2021/09/03 06:27:08;;;;;;;78.47;35.00;;;;;;;13.80;100.00;102130.72;5200024;28;20038;-82
2021/09/03 06:29:47;;;;;;;77.00;37.97;;;;;;;13.95;100.00;102135.41;5183660;28;20071;-81
2021/09/03 06:32:19;;;;;;;74.25;36.50;;;;;;;14.06;100.00;102139.72;5201757;28;20400;-83
2021/09/03 06:34:53;;;;;;;78.32;40.20;;;;;;;14.07;100.00;102143.28;5194183;28;20033;-82
2021/09/03 06:37:25;;;;;;;91.38;38.97;;;;;;;14.15;100.00;102137.91;5164737;28;20120;-81
2021/09/03 06:39:56;;;;;;;81.20;37.78;;;;;;;14.26;100.00;102140.38;5163504;28;20461;-83
2021/09/03 06:42:30;;;;;;;68.22;35.47;;;;;;;14.42;100.00;102139.63;5202224;28;20029;-83
2021/09/03 06:45:01;;;;;;;69.22;34.88;;;;;;;14.48;100.00;102136.31;5206218;28;20036;-83
2021/09/03 06:47:31;;;;;;;73.20;35.53;;;;;;;14.59;100.00;102138.72;5172708;28;20104;-82
2021/09/03 06:50:05;;;;;;;73.72;35.75;;;;;;;14.60;100.00;102143.09;5206647;28;20558;-81
2021/09/03 06:52:36;;;;;;;68.55;35.95;;;;;;;14.66;100.00;102139.78;5205925;28;20071;-83
2021/09/03 06:55:07;;;;;;;75.22;36.35;;;;;;;14.65;100.00;102143.47;5185070;28;20017;-82
2021/09/03 06:57:39;;;;;;;71.22;36.42;;;;;;;14.70;100.00;102140.28;5190424;28;20112;-83
2021/09/03 07:00:10;;;;;;;67.55;35.53;;;;;;;14.75;100.00;102129.84;5205089;28;20379;-83
2021/09/03 07:02:41;;;;;;;72.28;36.42;;;;;;;14.81;100.00;102131.03;5204317;28;20466;-83
2021/09/03 07:05:12;;;;;;;68.93;36.92;;;;;;;14.86;100.00;102140.38;5204415;28;20029;-83
2021/09/03 07:07:44;;;;;;;59.75;34.22;;;;;;;14.88;100.00;102138.34;5205247;28;20398;-80
2021/09/03 07:10:15;;;;;;;67.30;34.85;;;;;;;14.95;100.00;102133.13;5203378;28;20018;-84
2021/09/03 07:12:45;;;;;;;69.00;35.78;;;;;;;15.03;100.00;102139.41;5185352;28;20075;-83
2021/09/03 07:15:16;;;;;;;76.25;37.70;;;;;;;15.18;100.00;102142.31;5187312;28;20021;-81
2021/09/03 07:17:46;;;;;;;68.55;35.67;;;;;;;15.33;100.00;102136.28;5206299;28;20487;-81
2021/09/03 07:20:17;;;;;;;64.10;33.75;;;;;;;15.45;100.00;102134.94;5205682;28;20161;-84
2021/09/03 07:22:51;;;;;;;66.78;34.42;;;;;;;15.54;100.00;102137.47;5192101;28;20029;-82
2021/09/03 07:25:21;;;;;;;62.58;35.50;;;;;;;15.65;100.00;102135.50;5206968;28;20029;-81
2021/09/03 07:27:52;;;;;;;65.53;35.22;;;;;;;15.72;100.00;102134.66;5192050;28;20042;-80
2021/09/03 07:30:22;;;;;;;71.88;35.00;;;;;;;15.93;100.00;102139.56;5208836;28;20022;-82
2021/09/03 07:32:52;;;;;;;58.00;32.10;;;;;;;16.12;100.00;102138.38;5204493;28;20034;-82
2021/09/03 07:35:23;;;;;;;57.72;32.08;;;;;;;16.25;100.00;102126.97;5183045;28;20530;-82
2021/09/03 07:37:53;;;;;;;62.10;32.50;;;;;;;16.28;100.00;102130.19;5209270;28;20086;-81
2021/09/03 07:40:26;;;;;;;58.65;30.48;;;;;;;16.35;100.00;102121.38;5208055;28;20101;-84
2021/09/03 07:42:58;;;;;;;64.53;34.17;;;;;;;16.40;100.00;102125.25;5193053;28;20556;-84
2021/09/03 07:45:29;;;;;;;57.65;32.75;;;;;;;16.54;100.00;102113.69;5205106;28;20037;-84
2021/09/03 07:47:59;;;;;;;61.10;32.88;;;;;;;16.60;100.00;102114.88;5188564;28;20032;-83
2021/09/03 07:50:32;;;;;;;74.28;34.28;;;;;;;16.65;100.00;102112.47;5204245;28;20487;-84
2021/09/03 07:53:04;;;;;;;68.47;33.17;;;;;;;16.87;100.00;102113.63;5203535;28;20029;-84
2021/09/03 07:55:35;;;;;;;58.72;32.25;;;;;;;16.96;100.00;102111.69;5168947;28;20116;-83
2021/09/03 07:58:06;;;;;;;59.60;32.17;;;;;;;17.01;100.00;102112.84;5185638;28;20025;-83
2021/09/03 08:00:37;;;;;;;60.08;31.77;;;;;;;17.13;100.00;102110.59;5206173;28;20017;-82
2021/09/03 08:03:08;;;;;;;60.83;31.20;;;;;;;17.26;100.00;102109.97;5207700;28;20107;-84
2021/09/03 08:05:39;;;;;;;59.13;31.55;;;;;;;17.38;100.00;102105.00;5196173;28;20498;-83
2021/09/03 08:08:09;;;;;;;57.42;31.52;;;;;;;17.44;100.00;102102.41;5204819;28;20094;-84
2021/09/03 08:10:40;;;;;;;64.45;32.78;;;;;;;17.54;100.00;102097.56;5197326;28;20104;-83
2021/09/03 08:13:12;;;;;;;61.60;31.80;;;;;;;17.81;100.00;102100.75;5181216;28;20017;-83
2021/09/03 08:15:43;;;;;;;51.10;29.60;;;;;;;17.93;100.00;102101.19;5185549;28;20408;-85
2021/09/03 08:18:13;;;;;;;50.45;28.67;;;;;;;17.94;100.00;102097.44;5168536;28;20025;-83
2021/09/03 08:20:45;;;;;;;55.30;31.10;;;;;;;18.02;100.00;102108.19;5178645;28;20036;-84
2021/09/03 08:23:16;;;;;;;52.55;28.73;;;;;;;18.16;100.00;102107.38;5189897;28;20060;-82
2021/09/03 08:25:46;;;;;;;52.90;27.92;;;;;;;18.38;100.00;102111.91;5205470;28;20123;-83
2021/09/03 08:28:17;;;;;;;47.38;28.30;;;;;;;18.45;100.00;102111.97;5204794;28;20029;-84
2021/09/03 08:30:47;;;;;;;53.63;28.73;;;;;;;18.62;100.00;102109.91;5204366;28;20018;-83
2021/09/03 08:33:18;;;;;;;48.92;28.02;;;;;;;18.69;100.00;102108.16;5204907;28;20021;-83
2021/09/03 08:35:48;;;;;;;50.05;28.50;;;;;;;18.72;100.00;102096.91;5203790;28;20230;-85
2021/09/03 08:38:19;;;;;;;47.78;27.65;;;;;;;18.89;100.00;102102.97;5159064;28;20560;-84
2021/09/03 08:40:49;;;;;;;57.13;27.52;;;;;;;18.98;100.00;102095.56;5206343;28;20025;-84
2021/09/03 08:43:20;;;;;;;48.00;27.48;;;;;;;18.99;100.00;102097.25;5203800;28;20288;-83
2021/09/03 08:45:51;;;;;;;47.72;27.38;;;;;;;19.21;100.00;102101.66;5189682;28;20029;-82
2021/09/03 08:48:23;;;;;;;49.17;27.45;;;;;;;19.26;100.00;102095.66;5207123;28;20056;-83
2021/09/03 08:50:56;;;;;;;48.90;26.92;;;;;;;19.42;100.00;102088.06;5207597;28;20014;-83
2021/09/03 08:53:27;;;;;;;57.28;28.67;;;;;;;19.66;100.00;102083.28;5204781;28;20386;-82
2021/09/03 08:55:57;;;;;;;51.85;28.30;;;;;;;19.76;100.00;102100.13;5205322;28;20022;-83
2021/09/03 08:58:28;;;;;;;47.97;27.02;;;;;;;19.98;100.00;102087.34;5186788;28;20026;-82
2021/09/03 09:01:06;;;;;;;49.47;25.67;;;;;;;20.16;100.00;102089.53;5205570;28;20083;-84
2021/09/03 09:03:39;;;;;;;49.38;27.10;;;;;;;20.30;100.00;102083.13;5205271;28;20053;-82
2021/09/03 09:06:18;;;;;;;47.92;27.25;;;;;;;20.39;100.00;102081.94;5188957;28;20029;-83
2021/09/03 09:09:07;;;;;;;49.60;27.33;;;;;;;20.41;100.00;102095.34;5191907;28;20083;-83
2021/09/03 09:11:37;;;;;;;40.65;23.40;;;;;;;20.44;100.00;102087.63;5200324;28;20438;-82
2021/09/03 09:14:09;;;;;;;48.00;25.23;;;;;;;20.45;100.00;102093.91;5196718;28;20043;-82
2021/09/03 09:16:40;;;;;;;41.85;25.05;;;;;;;20.54;100.00;102091.91;5199157;28;20022;-82
2021/09/03 09:19:10;;;;;;;41.53;24.73;;;;;;;20.80;100.00;102096.63;5183186;28;20030;-88
2021/09/03 09:21:42;;;;;;;46.45;23.88;;;;;;;21.05;100.00;102096.91;5187748;28;20487;-83
2021/09/03 09:24:14;;;;;;;40.58;23.50;;;;;;;21.18;100.00;102095.03;5201953;28;20033;-82
2021/09/03 09:26:48;;;;;;;37.35;20.40;;;;;;;21.37;100.00;102089.88;5192910;28;20029;-83
2021/09/03 09:29:23;;;;;;;37.33;21.77;;;;;;;21.52;100.00;102086.94;5201608;28;20022;-85
2021/09/03 09:31:56;;;;;;;38.10;21.92;;;;;;;21.66;100.00;102080.44;5176757;28;20025;-84
2021/09/03 09:34:36;;;;;;;39.83;21.63;;;;;;;21.72;100.00;102085.06;5202306;28;20040;-82
2021/09/03 09:37:10;;;;;;;35.25;21.33;;;;;;;21.73;100.00;102075.81;5201024;28;20022;-82
2021/09/03 09:39:44;;;;;;;40.60;22.75;;;;;;;21.95;100.00;102080.03;5183127;28;20021;-84
2021/09/03 09:42:30;;;;;;;38.55;21.13;;;;;;;22.03;100.00;102075.38;5199349;28;20037;-83
2021/09/03 09:45:04;;;;;;;35.33;21.75;;;;;;;22.01;100.00;102078.31;5184694;28;20025;-83
2021/09/03 09:47:36;;;;;;;35.55;19.25;;;;;;;22.03;100.00;102076.22;5201231;28;20044;-83
2021/09/03 09:50:26;;;;;;;28.42;19.65;;;;;;;22.19;100.00;102064.88;5201134;28;20053;-83
2021/09/03 09:53:08;;;;;;;33.92;17.30;;;;;;;22.22;100.00;102067.16;5183639;28;20025;-83
2021/09/03 09:55:41;;;;;;;29.48;16.98;;;;;;;22.28;100.00;102061.91;5201912;28;20033;-82
2021/09/03 09:58:14;;;;;;;29.08;18.30;;;;;;;22.33;100.00;102065.66;5201667;28;20041;-83
2021/09/03 10:00:44;;;;;;;29.15;16.35;;;;;;;22.28;100.00;102062.72;5170697;28;20076;-82
2021/09/03 10:03:17;;;;;;;30.05;15.90;;;;;;;22.42;100.00;102053.44;5201185;28;20045;-81
2021/09/03 10:05:48;;;;;;;29.15;17.25;;;;;;;22.40;100.00;102061.03;5201593;28;20027;-82
2021/09/03 10:08:19;;;;;;;26.95;16.52;;;;;;;22.62;100.00;102052.53;5184042;28;20448;-81
2021/09/03 10:10:49;;;;;;;24.52;16.13;;;;;;;22.68;100.00;102051.66;5200460;28;20017;-82
2021/09/03 10:13:20;;;;;;;25.95;15.93;;;;;;;22.75;100.00;102047.84;5183402;28;20242;-84
2021/09/03 10:15:50;;;;;;;31.95;15.73;;;;;;;22.87;100.00;102047.97;5201627;28;20061;-81
2021/09/03 10:18:21;;;;;;;25.45;15.63;;;;;;;23.12;100.00;102045.34;5172689;28;20017;-82
2021/09/03 10:20:52;;;;;;;30.42;15.80;;;;;;;23.14;100.00;102045.94;5208028;28;20029;-83
2021/09/03 10:23:46;;;;;;;29.23;14.95;;;;;;;23.17;100.00;102041.94;5194107;28;20116;-82
2021/09/03 10:26:21;;;;;;;24.33;14.43;;;;;;;23.22;100.00;102031.16;5205469;28;20120;-81
2021/09/03 10:29:14;;;;;;;27.90;14.38;;;;;;;23.27;100.00;102028.59;5203575;28;20029;-82
2021/09/03 10:32:04;;;;;;;19.50;11.98;;;;;;;23.28;100.00;102024.78;5198948;28;20021;-82
2021/09/03 10:34:40;;;;;;;21.42;13.02;;;;;;;23.48;100.00;102025.47;5208087;28;20293;-82
2021/09/03 10:37:14;;;;;;;23.60;13.98;;;;;;;23.56;100.00;102029.00;5194531;28;20029;-83
2021/09/03 10:39:47;;;;;;;22.95;13.68;;;;;;;23.62;100.00;102028.94;5212528;28;20089;-83
2021/09/03 10:42:46;;;;;;;24.92;13.05;;;;;;;23.69;100.00;102015.19;5207150;28;20107;-83
2021/09/03 10:45:26;;;;;;;21.90;12.05;;;;;;;24.00;100.00;102020.59;5207082;28;20025;-84
2021/09/03 10:47:57;;;;;;;22.88;11.20;;;;;;;23.86;100.00;102012.75;5196785;28;20085;-82
2021/09/03 10:50:38;;;;;;;19.48;11.88;;;;;;;23.93;100.00;102005.28;5205273;28;20022;-83
2021/09/03 10:53:10;;;;;;;22.95;12.57;;;;;;;23.92;100.00;102000.88;5189249;28;20026;-82
2021/09/03 10:56:02;;;;;;;20.67;12.57;;;;;;;24.08;100.00;101999.41;5203761;28;20026;-82
2021/09/03 10:58:41;;;;;;;19.77;11.02;;;;;;;24.08;100.00;101992.03;5204078;28;20025;-82
2021/09/03 11:01:11;;;;;;;23.48;11.05;;;;;;;24.11;100.00;101990.75;5210372;28;20032;-83
2021/09/03 11:03:46;;;;;;;21.92;10.80;;;;;;;24.29;100.00;101990.72;5189779;28;20041;-82
2021/09/03 11:06:23;;;;;;;16.13;9.75;;;;;;;24.41;100.00;101996.31;5209477;28;20017;-83
2021/09/03 11:08:58;;;;;;;17.00;9.68;;;;;;;24.56;100.00;101982.19;5207282;28;20033;-83
2021/09/03 11:11:33;;;;;;;21.08;11.02;;;;;;;24.63;100.00;101974.69;5207538;28;20048;-83
2021/09/03 11:14:11;;;;;;;19.48;10.85;;;;;;;24.48;100.00;101970.47;5183428;28;20026;-84
2021/09/03 11:16:53;;;;;;;20.17;11.93;;;;;;;24.57;100.00;101960.00;5203423;28;20032;-84
2021/09/03 11:19:32;;;;;;;17.70;9.45;;;;;;;24.43;100.00;101972.22;5207987;28;20021;-82
2021/09/03 11:22:09;;;;;;;15.00;9.18;;;;;;;24.47;100.00;101974.28;5194457;28;20033;-82
2021/09/03 11:24:45;;;;;;;15.18;9.02;;;;;;;24.68;100.00;101966.63;5211295;28;20033;-82